createdAt,value
2023-04-29T00:00:33.172Z,21.1
2023-04-29T00:02:16.877Z,21.1
2023-04-29T00:04:00.574Z,21.1
2023-04-29T00:05:44.315Z,21.1
2023-04-29T00:07:27.972Z,21.1
2023-04-29T00:09:11.678Z,21.1
2023-04-29T00:10:55.400Z,21.1
2023-04-29T00:12:39.079Z,21.1
2023-04-29T00:14:22.773Z,21.1
2023-04-29T00:16:06.496Z,21.1
2023-04-29T00:17:50.184Z,21.1
2023-04-29T00:19:33.888Z,21.1
2023-04-29T00:21:17.694Z,21.1
2023-04-29T00:23:01.292Z,21.1
2023-04-29T00:24:44.994Z,21.1
2023-04-29T00:26:28.713Z,21.1
2023-04-29T00:28:12.406Z,21.1
2023-04-29T00:29:56.098Z,21.1
2023-04-29T00:31:39.805Z,21.1
2023-04-29T00:33:23.498Z,21.1
2023-04-29T00:35:07.228Z,21.1
2023-04-29T00:36:50.922Z,21.1
2023-04-29T00:38:34.607Z,21.1
2023-04-29T00:40:18.321Z,21.1
2023-04-29T00:42:02.027Z,21.1
2023-04-29T00:43:45.722Z,21.1
2023-04-29T00:45:29.435Z,21.1
2023-04-29T00:47:13.125Z,21.1
2023-04-29T00:48:56.836Z,21.1
2023-04-29T00:50:40.586Z,21.1
2023-04-29T00:52:24.240Z,21.1
2023-04-29T00:54:07.941Z,21.1
2023-04-29T00:55:51.646Z,21.1
2023-04-29T00:57:35.341Z,21.1
2023-04-29T00:59:19.053Z,21.1
2023-04-29T01:01:02.808Z,21.1
2023-04-29T01:02:46.446Z,21.1
2023-04-29T01:04:30.164Z,21.1
2023-04-29T01:06:13.859Z,21.1
2023-04-29T01:07:57.565Z,21.1
2023-04-29T01:09:41.256Z,21.1
2023-04-29T01:11:24.973Z,21.1
2023-04-29T01:13:08.683Z,21.1
2023-04-29T01:14:52.402Z,21.1
2023-04-29T01:16:36.091Z,21.1
2023-04-29T01:18:19.810Z,21.1
2023-04-29T01:20:03.487Z,21.1
2023-04-29T01:21:47.213Z,21.1
2023-04-29T01:23:30.941Z,21.1
2023-04-29T01:25:14.636Z,21.1
2023-04-29T01:26:58.301Z,21.1
2023-04-29T01:28:42.052Z,21.1
2023-04-29T01:30:25.714Z,21.1
2023-04-29T01:32:09.409Z,21.1
2023-04-29T01:33:53.112Z,21.1
2023-04-29T01:35:36.821Z,21.1
2023-04-29T01:37:20.526Z,21.1
2023-04-29T01:39:04.213Z,21.1
2023-04-29T01:40:47.921Z,21.1
2023-04-29T01:42:31.629Z,21.1
2023-04-29T01:44:15.323Z,21.1
2023-04-29T01:45:59.021Z,21.1
2023-04-29T01:47:42.728Z,21.1
2023-04-29T01:49:26.439Z,21.1
2023-04-29T01:51:10.143Z,21.1
2023-04-29T01:52:53.869Z,21.1
2023-04-29T01:54:37.531Z,21.1
2023-04-29T01:56:21.246Z,21.1
2023-04-29T01:58:04.948Z,21.1
2023-04-29T01:59:48.654Z,21.1
2023-04-29T02:01:32.356Z,21.1
2023-04-29T02:04:59.781Z,21.1
2023-04-29T02:06:43.461Z,21.1
2023-04-29T02:08:27.168Z,21.1
2023-04-29T02:10:10.870Z,21.1
2023-04-29T02:11:54.557Z,21.1
2023-04-29T02:13:38.265Z,21.1
2023-04-29T02:15:21.978Z,21.1
2023-04-29T02:17:05.679Z,21.1
2023-04-29T02:18:49.383Z,21.1
2023-04-29T02:20:33.086Z,21.1
2023-04-29T02:22:16.786Z,21.1
2023-04-29T02:24:00.489Z,21.1
2023-04-29T02:25:44.182Z,21.1
2023-04-29T02:27:27.893Z,21.1
2023-04-29T02:29:11.591Z,21.1
2023-04-29T02:30:55.291Z,21.1
2023-04-29T02:32:39.009Z,21.1
2023-04-29T02:34:22.712Z,21.1
2023-04-29T02:36:06.408Z,21.1
2023-04-29T02:37:50.108Z,21.1
2023-04-29T02:39:33.805Z,21.1
2023-04-29T02:41:17.522Z,21.1
2023-04-29T02:43:01.215Z,21.1
2023-04-29T02:44:44.922Z,21.1
2023-04-29T02:46:28.629Z,21.1
2023-04-29T02:48:12.320Z,21.1
2023-04-29T02:49:56.045Z,21.1
2023-04-29T02:51:39.724Z,21.1
2023-04-29T02:53:23.433Z,21.1
2023-04-29T02:55:07.147Z,21.1
2023-04-29T02:56:50.836Z,21.1
2023-04-29T02:58:34.546Z,21.1
2023-04-29T03:00:18.252Z,21.1
2023-04-29T03:02:01.978Z,21.1
2023-04-29T03:03:45.649Z,21.1
2023-04-29T03:05:29.346Z,21.1
2023-04-29T03:07:13.053Z,21.1
2023-04-29T03:08:56.762Z,21.1
2023-04-29T03:10:40.464Z,21.1
2023-04-29T03:12:24.163Z,21.1
2023-04-29T03:14:07.856Z,21.1
2023-04-29T03:15:51.560Z,21.1
2023-04-29T03:17:35.269Z,21.1
2023-04-29T03:19:18.972Z,21.1
2023-04-29T03:21:02.673Z,21.1
2023-04-29T03:22:46.405Z,21.1
2023-04-29T03:24:30.078Z,21.1
2023-04-29T03:26:13.772Z,21.1
2023-04-29T03:27:57.492Z,21.1
2023-04-29T03:29:41.273Z,21.1
2023-04-29T03:31:24.886Z,21.1
2023-04-29T03:33:08.606Z,21.1
2023-04-29T03:34:52.303Z,21.1
2023-04-29T03:36:35.988Z,21.1
2023-04-29T03:38:19.693Z,21.1
2023-04-29T03:40:03.388Z,21.1
2023-04-29T03:41:47.099Z,21.1
2023-04-29T03:43:30.817Z,21.1
2023-04-29T03:45:14.582Z,21.1
2023-04-29T03:46:58.260Z,21.1
2023-04-29T03:48:41.919Z,21.1
2023-04-29T03:50:25.607Z,21.1
2023-04-29T03:52:09.309Z,21.1
2023-04-29T03:53:53.021Z,21.1
2023-04-29T03:55:36.719Z,21.1
2023-04-29T03:57:20.418Z,21.1
2023-04-29T03:59:04.126Z,21.1
2023-04-29T04:00:47.815Z,21.1
2023-04-29T04:02:31.522Z,21.1
2023-04-29T04:04:15.242Z,21.1
2023-04-29T04:05:58.975Z,21.1
2023-04-29T04:07:42.628Z,21.1
2023-04-29T04:09:26.364Z,21.1
2023-04-29T04:11:10.155Z,21.1
2023-04-29T04:12:53.734Z,21
2023-04-29T04:14:37.445Z,21.1
2023-04-29T04:16:21.163Z,21.1
2023-04-29T04:18:04.844Z,21.1
2023-04-29T04:19:48.542Z,21.1
2023-04-29T04:21:32.264Z,21.1
2023-04-29T04:23:15.953Z,21.1
2023-04-29T04:24:59.719Z,21.1
2023-04-29T04:26:43.353Z,21.1
2023-04-29T04:28:27.059Z,21.1
2023-04-29T04:30:10.774Z,21.1
2023-04-29T04:31:54.462Z,21.1
2023-04-29T04:33:38.178Z,21.1
2023-04-29T04:38:49.279Z,21.1
2023-04-29T04:40:32.978Z,21.1
2023-04-29T04:42:16.696Z,21.1
2023-04-29T04:44:00.390Z,21.1
2023-04-29T04:45:44.089Z,21.1
2023-04-29T04:47:27.789Z,21.1
2023-04-29T04:49:11.496Z,21.1
2023-04-29T04:50:55.195Z,21.1
2023-04-29T04:52:38.899Z,21.1
2023-04-29T04:54:22.600Z,21.1
2023-04-29T04:56:06.322Z,21.1
2023-04-29T04:57:50.010Z,21.1
2023-04-29T04:59:33.728Z,21.1
2023-04-29T05:01:17.410Z,21.1
2023-04-29T05:03:01.116Z,21.1
2023-04-29T05:04:44.847Z,21.1
2023-04-29T05:06:28.527Z,21.1
2023-04-29T05:08:12.228Z,21.1
2023-04-29T05:09:55.919Z,21.1
2023-04-29T05:11:39.646Z,21.1
2023-04-29T05:13:23.326Z,21.1
2023-04-29T05:15:07.036Z,21.1
2023-04-29T05:16:50.733Z,21.1
2023-04-29T05:18:34.429Z,21.1
2023-04-29T05:20:18.140Z,21.1
2023-04-29T05:22:01.842Z,21.1
2023-04-29T05:23:45.553Z,21.1
2023-04-29T05:25:29.271Z,21.1
2023-04-29T05:27:12.946Z,21.1
2023-04-29T05:28:56.652Z,21.1
2023-04-29T05:30:40.363Z,21.1
2023-04-29T05:32:24.053Z,21.1
2023-04-29T05:34:07.767Z,21.1
2023-04-29T05:35:51.462Z,21.1
2023-04-29T05:37:35.185Z,21.1
2023-04-29T05:39:18.877Z,21.1
2023-04-29T05:41:02.579Z,21.1
2023-04-29T05:42:46.278Z,21.1
2023-04-29T05:44:29.978Z,21.1
2023-04-29T05:46:13.673Z,21.1
2023-04-29T05:47:57.382Z,21.1
2023-04-29T05:49:41.128Z,21.1
2023-04-29T05:51:24.796Z,21.1
2023-04-29T05:53:08.503Z,21.1
2023-04-29T05:54:52.191Z,21.1
2023-04-29T05:56:35.921Z,21.2
2023-04-29T05:58:19.601Z,21.1
2023-04-29T06:00:03.302Z,21.2
2023-04-29T06:01:47.004Z,21.2
2023-04-29T06:03:30.708Z,21.2
2023-04-29T06:05:14.402Z,21.2
2023-04-29T06:06:58.120Z,21.2
2023-04-29T06:08:41.826Z,21.2
2023-04-29T06:10:25.527Z,21.2
2023-04-29T06:12:09.270Z,21.2
2023-04-29T06:13:52.925Z,21.2
2023-04-29T06:15:36.624Z,21.2
2023-04-29T06:17:20.347Z,21.2
2023-04-29T06:19:04.025Z,21.2
2023-04-29T06:20:47.732Z,21.2
2023-04-29T06:22:31.438Z,21.2
2023-04-29T06:24:15.137Z,21.2
2023-04-29T06:25:58.838Z,21.2
2023-04-29T06:27:42.534Z,21.1
2023-04-29T06:29:26.250Z,21.2
2023-04-29T06:31:09.955Z,21.1
2023-04-29T06:32:53.645Z,21.2
2023-04-29T06:34:37.353Z,21.2
2023-04-29T06:36:21.052Z,21.2
2023-04-29T06:38:04.781Z,21.2
2023-04-29T06:39:48.587Z,21.2
2023-04-29T06:41:32.187Z,21.2
2023-04-29T06:43:15.867Z,21.2
2023-04-29T06:44:59.568Z,21.2
2023-04-29T06:46:43.339Z,21.2
2023-04-29T06:48:26.979Z,21.2
2023-04-29T06:50:10.693Z,21.2
2023-04-29T06:51:54.387Z,21.2
2023-04-29T06:53:38.085Z,21.2
2023-04-29T06:57:05.554Z,21.2
2023-04-29T06:58:49.197Z,21.2
2023-04-29T07:00:32.887Z,21.2
2023-04-29T07:02:16.651Z,21.2
2023-04-29T07:04:00.307Z,21.2
2023-04-29T07:05:44.002Z,21.2
2023-04-29T07:07:27.710Z,21.2
2023-04-29T07:09:11.469Z,21.2
2023-04-29T07:10:55.103Z,21.2
2023-04-29T07:12:38.822Z,21.2
2023-04-29T07:14:22.508Z,21.2
2023-04-29T07:16:06.220Z,21.2
2023-04-29T07:17:49.928Z,21.2
2023-04-29T07:19:33.621Z,21.2
2023-04-29T07:21:17.336Z,21.2
2023-04-29T07:23:01.031Z,21.2
2023-04-29T07:24:44.722Z,21.2
2023-04-29T07:26:28.423Z,21.2
2023-04-29T07:28:12.140Z,21.2
2023-04-29T07:29:55.844Z,21.2
2023-04-29T07:31:39.542Z,21.2
2023-04-29T07:33:23.253Z,21.2
2023-04-29T07:35:06.985Z,21.2
2023-04-29T07:36:50.656Z,21.2
2023-04-29T07:38:34.350Z,21.2
2023-04-29T07:40:18.067Z,21.2
2023-04-29T07:42:01.763Z,21.2
2023-04-29T07:43:45.467Z,21.2
2023-04-29T07:45:29.172Z,21.2
2023-04-29T07:47:12.862Z,21.2
2023-04-29T07:48:56.573Z,21.2
2023-04-29T07:50:40.275Z,21.2
2023-04-29T07:52:23.968Z,21.2
2023-04-29T07:54:07.671Z,21.2
2023-04-29T07:55:51.380Z,21.2
2023-04-29T07:57:35.086Z,21.2
2023-04-29T07:59:18.794Z,21.2
2023-04-29T08:01:02.488Z,21.2
2023-04-29T08:02:46.182Z,21.2
2023-04-29T08:04:29.890Z,21.2
2023-04-29T08:06:13.590Z,21.2
2023-04-29T08:07:57.307Z,21.2
2023-04-29T08:09:41.002Z,21.2
2023-04-29T08:11:24.720Z,21.2
2023-04-29T08:13:08.410Z,21.3
2023-04-29T08:14:52.110Z,21.3
2023-04-29T08:16:35.809Z,21.3
2023-04-29T08:18:19.530Z,21.3
2023-04-29T08:20:03.222Z,21.3
2023-04-29T08:21:46.939Z,21.3
2023-04-29T08:23:30.619Z,21.3
2023-04-29T08:25:14.329Z,21.3
2023-04-29T08:26:58.023Z,21.3
2023-04-29T08:28:41.739Z,21.3
2023-04-29T08:30:25.427Z,21.3
2023-04-29T08:32:09.141Z,21.3
2023-04-29T08:33:52.835Z,21.3
2023-04-29T08:35:36.541Z,21.3
2023-04-29T08:37:20.326Z,21.3
2023-04-29T08:39:03.943Z,21.3
2023-04-29T08:40:47.661Z,21.3
2023-04-29T08:42:31.344Z,21.3
2023-04-29T08:45:58.763Z,21.3
2023-04-29T08:47:42.462Z,21.4
2023-04-29T08:49:26.167Z,21.4
2023-04-29T08:51:09.868Z,21.4
2023-04-29T08:52:53.570Z,21.4
2023-04-29T08:54:37.329Z,21.4
2023-04-29T08:56:20.974Z,21.4
2023-04-29T08:58:04.742Z,21.4
2023-04-29T08:59:48.381Z,21.4
2023-04-29T09:01:32.090Z,21.4
2023-04-29T09:03:15.784Z,21.4
2023-04-29T09:04:59.481Z,21.4
2023-04-29T09:06:43.188Z,21.4
2023-04-29T09:08:26.892Z,21.4
2023-04-29T09:10:10.592Z,21.4
2023-04-29T09:11:54.310Z,21.4
2023-04-29T09:13:38.015Z,21.4
2023-04-29T09:15:21.702Z,21.4
2023-04-29T09:17:05.401Z,21.4
2023-04-29T09:18:49.110Z,21.4
2023-04-29T09:20:32.810Z,21.4
2023-04-29T09:22:16.519Z,21.4
2023-04-29T09:24:00.221Z,21.4
2023-04-29T09:25:43.936Z,21.4
2023-04-29T09:27:27.630Z,21.5
2023-04-29T09:29:11.322Z,21.5
2023-04-29T09:30:55.020Z,21.5
2023-04-29T09:32:38.730Z,21.5
2023-04-29T09:34:22.488Z,21.5
2023-04-29T09:36:06.123Z,21.5
2023-04-29T09:37:49.835Z,21.5
2023-04-29T09:39:33.550Z,21.5
2023-04-29T09:41:17.241Z,21.5
2023-04-29T09:43:00.942Z,21.5
2023-04-29T09:44:44.757Z,21.5
2023-04-29T09:46:28.338Z,21.5
2023-04-29T09:48:12.067Z,21.5
2023-04-29T09:49:55.759Z,21.5
2023-04-29T09:51:39.448Z,21.5
2023-04-29T09:53:23.153Z,21.5
2023-04-29T09:55:06.860Z,21.5
2023-04-29T09:56:50.559Z,21.6
2023-04-29T09:58:34.299Z,21.5
2023-04-29T10:00:17.959Z,21.6
2023-04-29T10:02:01.681Z,21.6
2023-04-29T10:03:45.367Z,21.6
2023-04-29T10:05:29.088Z,21.6
2023-04-29T10:07:12.774Z,21.6
2023-04-29T10:08:56.469Z,21.6
2023-04-29T10:10:40.199Z,21.6
2023-04-29T10:12:23.877Z,21.6
2023-04-29T10:14:07.589Z,21.6
2023-04-29T10:15:51.293Z,21.6
2023-04-29T10:17:34.989Z,21.6
2023-04-29T10:19:18.695Z,21.6
2023-04-29T10:21:02.392Z,21.7
2023-04-29T10:22:46.090Z,21.6
2023-04-29T10:24:29.792Z,21.4
2023-04-29T10:26:13.503Z,21.3
2023-04-29T10:27:57.210Z,21.1
2023-04-29T10:29:40.906Z,21
2023-04-29T10:31:24.613Z,20.9
2023-04-29T10:33:08.341Z,20.8
2023-04-29T10:34:52.017Z,20.8
2023-04-29T10:36:35.733Z,20.7
2023-04-29T10:38:19.441Z,20.7
2023-04-29T10:40:03.128Z,20.6
2023-04-29T10:41:46.867Z,20.6
2023-04-29T10:43:30.525Z,20.5
2023-04-29T10:45:14.224Z,20.5
2023-04-29T10:46:57.928Z,20.4
2023-04-29T10:48:41.629Z,20.4
2023-04-29T10:50:25.334Z,20.4
2023-04-29T10:52:09.046Z,20.4
2023-04-29T10:53:52.746Z,20.5
2023-04-29T10:55:36.435Z,20.5
2023-04-29T10:57:20.142Z,20.5
2023-04-29T10:59:03.854Z,20.5
2023-04-29T11:00:47.546Z,20.6
2023-04-29T11:02:31.257Z,20.6
2023-04-29T11:04:14.960Z,20.6
2023-04-29T11:05:58.657Z,20.5
2023-04-29T11:07:42.377Z,20.5
2023-04-29T11:09:26.102Z,20.5
2023-04-29T11:11:09.785Z,20.6
2023-04-29T11:12:53.480Z,20.6
2023-04-29T11:14:37.229Z,20.6
2023-04-29T11:16:20.877Z,20.5
2023-04-29T11:18:04.584Z,20.5
2023-04-29T11:19:48.283Z,20.5
2023-04-29T11:21:31.981Z,20.5
2023-04-29T11:23:15.683Z,20.4
2023-04-29T11:24:59.384Z,20.4
2023-04-29T11:26:43.122Z,20.4
2023-04-29T11:28:26.791Z,20.3
2023-04-29T11:30:10.547Z,20.4
2023-04-29T11:31:54.191Z,20.4
2023-04-29T11:33:37.925Z,20.4
2023-04-29T11:35:21.612Z,20.5
2023-04-29T11:37:05.301Z,20.5
2023-04-29T11:38:49.007Z,20.5
2023-04-29T11:40:32.710Z,20.5
2023-04-29T11:42:16.491Z,20.5
2023-04-29T11:44:00.188Z,20.6
2023-04-29T11:45:43.820Z,20.6
2023-04-29T11:47:27.524Z,20.6
2023-04-29T11:49:11.232Z,20.6
2023-04-29T11:50:54.923Z,20.6
2023-04-29T11:52:38.628Z,20.6
2023-04-29T11:54:22.336Z,20.5
2023-04-29T11:56:06.029Z,20.6
2023-04-29T11:57:49.740Z,20.6
2023-04-29T11:59:33.443Z,20.6
2023-04-29T12:01:17.138Z,20.6
2023-04-29T12:03:00.835Z,20.6
2023-04-29T12:04:44.577Z,20.6
2023-04-29T12:06:28.239Z,20.6
2023-04-29T12:08:12.015Z,20.6
2023-04-29T12:09:55.658Z,20.6
2023-04-29T12:11:39.345Z,20.7
2023-04-29T12:13:23.092Z,20.8
2023-04-29T12:15:06.863Z,20.8
2023-04-29T12:16:50.456Z,20.8
2023-04-29T12:18:34.176Z,20.7
2023-04-29T12:20:17.931Z,20.8
2023-04-29T12:22:01.554Z,20.8
2023-04-29T12:23:45.281Z,20.9
2023-04-29T12:25:28.996Z,20.8
2023-04-29T12:27:12.675Z,20.8
2023-04-29T12:28:56.365Z,20.8
2023-04-29T12:30:40.109Z,20.7
2023-04-29T12:32:23.780Z,20.7
2023-04-29T12:34:07.476Z,20.7
2023-04-29T12:35:51.181Z,20.6
2023-04-29T12:37:34.890Z,20.6
2023-04-29T12:39:18.576Z,20.6
2023-04-29T12:41:02.289Z,20.6
2023-04-29T12:42:45.997Z,20.6
2023-04-29T12:44:29.703Z,20.5
2023-04-29T12:46:13.411Z,20.5
2023-04-29T12:47:57.104Z,20.5
2023-04-29T12:49:40.831Z,20.5
2023-04-29T12:51:24.512Z,20.6
2023-04-29T12:53:08.203Z,20.6
2023-04-29T12:54:51.917Z,20.6
2023-04-29T12:56:35.748Z,20.6
2023-04-29T12:58:19.312Z,20.6
2023-04-29T13:01:46.728Z,20.7
2023-04-29T13:03:30.429Z,20.7
2023-04-29T13:05:14.136Z,20.7
2023-04-29T13:06:57.905Z,20.7
2023-04-29T13:08:41.565Z,20.7
2023-04-29T13:10:25.249Z,20.8
2023-04-29T13:12:08.945Z,20.8
2023-04-29T13:13:52.652Z,20.7
2023-04-29T13:15:36.361Z,20.7
2023-04-29T13:17:20.072Z,20.8
2023-04-29T13:19:03.757Z,20.8
2023-04-29T13:20:47.508Z,20.7
2023-04-29T13:22:31.159Z,20.7
2023-04-29T13:24:14.861Z,20.7
2023-04-29T13:25:58.555Z,20.7
2023-04-29T13:27:42.270Z,20.7
2023-04-29T13:29:26.019Z,20.8
2023-04-29T13:31:09.666Z,20.8
2023-04-29T13:32:53.365Z,20.9
2023-04-29T13:34:37.114Z,20.9
2023-04-29T13:36:20.778Z,20.9
2023-04-29T13:38:04.496Z,20.9
2023-04-29T13:39:48.325Z,20.9
2023-04-29T13:41:31.890Z,20.9
2023-04-29T13:43:15.592Z,20.8
2023-04-29T13:44:59.291Z,20.8
2023-04-29T13:46:43.010Z,20.9
2023-04-29T13:48:26.700Z,20.9
2023-04-29T13:50:10.571Z,20.9
2023-04-29T13:51:54.107Z,20.8
2023-04-29T13:53:37.803Z,20.8
2023-04-29T13:55:21.500Z,20.9
2023-04-29T13:57:05.230Z,20.9
2023-04-29T13:58:48.911Z,20.9
2023-04-29T14:00:32.605Z,20.9
2023-04-29T14:02:16.326Z,20.9
2023-04-29T14:04:00.017Z,21
2023-04-29T14:05:43.749Z,21
2023-04-29T14:07:27.419Z,21
2023-04-29T14:09:11.125Z,21
2023-04-29T14:10:54.842Z,20.9
2023-04-29T14:12:38.532Z,20.9
2023-04-29T14:14:22.247Z,20.9
2023-04-29T14:16:05.946Z,20.9
2023-04-29T14:17:49.697Z,20.9
2023-04-29T14:19:33.367Z,21
2023-04-29T14:21:17.124Z,21
2023-04-29T14:23:00.771Z,21
2023-04-29T14:24:44.463Z,21
2023-04-29T14:26:28.168Z,21
2023-04-29T14:28:11.862Z,21
2023-04-29T14:29:55.583Z,21
2023-04-29T14:31:39.261Z,21.1
2023-04-29T14:33:22.972Z,21.1
2023-04-29T14:35:06.677Z,21.1
2023-04-29T14:36:50.425Z,21.1
2023-04-29T14:38:34.064Z,21.1
2023-04-29T14:40:17.776Z,21.1
2023-04-29T14:42:01.471Z,21.1
2023-04-29T14:43:45.181Z,21.1
2023-04-29T14:45:28.875Z,21
2023-04-29T14:47:12.588Z,21
2023-04-29T14:48:56.288Z,21
2023-04-29T14:50:40.016Z,21
2023-04-29T14:52:23.680Z,21
2023-04-29T14:54:07.387Z,21
2023-04-29T14:55:51.092Z,21
2023-04-29T14:57:34.796Z,21
2023-04-29T14:59:18.492Z,21
2023-04-29T15:01:02.334Z,21
2023-04-29T15:02:45.893Z,20.9
2023-04-29T15:04:29.605Z,20.8
2023-04-29T15:06:13.306Z,20.8
2023-04-29T15:07:57.016Z,20.8
2023-04-29T15:09:40.717Z,20.8
2023-04-29T15:11:24.421Z,20.8
2023-04-29T15:13:08.114Z,20.8
2023-04-29T15:14:51.975Z,20.8
2023-04-29T15:16:35.703Z,20.7
2023-04-29T15:18:19.335Z,20.6
2023-04-29T15:20:03.035Z,20.7
2023-04-29T15:21:46.798Z,20.8
2023-04-29T15:23:30.470Z,21
2023-04-29T15:25:14.045Z,21
2023-04-29T15:26:57.898Z,21.1
2023-04-29T15:28:41.574Z,21.1
2023-04-29T15:30:25.152Z,21.1
2023-04-29T15:32:09.026Z,21.1
2023-04-29T15:33:52.650Z,21
2023-04-29T15:35:36.247Z,21
2023-04-29T15:37:20.122Z,21
2023-04-29T15:39:03.856Z,20.9
2023-04-29T15:40:47.516Z,20.9
2023-04-29T15:42:31.179Z,20.9
2023-04-29T15:44:14.935Z,20.8
2023-04-29T15:45:58.664Z,20.8
2023-04-29T15:47:42.328Z,20.8
2023-04-29T15:49:26.146Z,20.8
2023-04-29T15:51:09.738Z,20.8
2023-04-29T15:52:53.464Z,20.8
2023-04-29T15:54:37.137Z,20.7
2023-04-29T15:56:20.882Z,20.7
2023-04-29T15:58:04.567Z,20.6
2023-04-29T15:59:48.230Z,20.5
2023-04-29T16:01:31.891Z,20.4
2023-04-29T16:03:15.764Z,20.3
2023-04-29T16:04:59.288Z,20.3
2023-04-29T16:06:43.060Z,20.3
2023-04-29T16:08:26.815Z,20.2
2023-04-29T16:10:10.303Z,20.2
2023-04-29T16:11:54.011Z,20.2
2023-04-29T16:13:37.715Z,20.1
2023-04-29T16:15:21.450Z,20
2023-04-29T16:17:05.127Z,20
2023-04-29T16:18:48.826Z,20
2023-04-29T16:20:32.526Z,20
2023-04-29T16:22:16.363Z,19.9
2023-04-29T16:24:00.061Z,19.9
2023-04-29T16:25:43.629Z,20.1
2023-04-29T16:27:27.329Z,20.3
2023-04-29T16:29:11.032Z,20.5
2023-04-29T16:30:54.888Z,20.6
2023-04-29T16:32:38.433Z,20.7
2023-04-29T16:34:22.143Z,20.7
2023-04-29T16:36:05.864Z,20.8
2023-04-29T16:37:49.593Z,20.9
2023-04-29T16:39:33.249Z,20.9
2023-04-29T16:41:16.951Z,21
2023-04-29T16:43:00.751Z,21
2023-04-29T16:44:44.357Z,21
2023-04-29T16:46:28.064Z,21.1
2023-04-29T16:48:11.756Z,21.1
2023-04-29T16:49:55.531Z,21.1
2023-04-29T16:51:39.220Z,21.1
2023-04-29T16:53:22.870Z,21.1
2023-04-29T16:55:06.629Z,21.1
2023-04-29T16:56:50.267Z,21.2
2023-04-29T16:58:33.983Z,21.2
2023-04-29T17:00:17.683Z,21.2
2023-04-29T17:02:01.377Z,21.2
2023-04-29T17:03:45.133Z,21.3
2023-04-29T17:05:28.881Z,21.3
2023-04-29T17:07:12.488Z,21.3
2023-04-29T17:08:56.273Z,21.3
2023-04-29T17:10:40.073Z,21.3
2023-04-29T17:12:23.614Z,21.3
2023-04-29T17:14:07.301Z,21.3
2023-04-29T17:15:51.009Z,21.3
2023-04-29T17:17:34.705Z,21.3
2023-04-29T17:19:18.495Z,21.3
2023-04-29T17:21:02.114Z,21.3
2023-04-29T17:22:45.840Z,21.3
2023-04-29T17:24:29.610Z,21.3
2023-04-29T17:26:13.292Z,21.3
2023-04-29T17:27:56.931Z,21.3
2023-04-29T17:29:40.645Z,21.3
2023-04-29T17:31:24.345Z,21.3
2023-04-29T17:33:08.072Z,21.3
2023-04-29T17:34:51.727Z,21.3
2023-04-29T17:36:35.495Z,21.3
2023-04-29T17:38:19.167Z,21.3
2023-04-29T17:40:02.839Z,21.3
2023-04-29T17:41:46.556Z,21.3
2023-04-29T17:43:30.260Z,21.3
2023-04-29T17:45:13.963Z,21.3
2023-04-29T17:46:57.689Z,21.3
2023-04-29T17:48:41.387Z,21.3
2023-04-29T17:50:25.161Z,21.3
2023-04-29T17:52:08.772Z,21.3
2023-04-29T17:53:52.456Z,21.3
2023-04-29T17:55:36.183Z,21.3
2023-04-29T17:57:19.873Z,21.3
2023-04-29T17:59:03.563Z,21.3
2023-04-29T18:00:47.335Z,21.3
2023-04-29T18:02:31.019Z,21.3
2023-04-29T18:04:14.691Z,21.3
2023-04-29T18:05:58.379Z,21.3
2023-04-29T18:07:42.108Z,21.3
2023-04-29T18:09:25.784Z,21.3
2023-04-29T18:11:09.571Z,21.3
2023-04-29T18:12:53.210Z,21.3
2023-04-29T18:14:36.932Z,21.3
2023-04-29T18:16:20.671Z,21.3
2023-04-29T18:18:04.295Z,21.3
2023-04-29T18:19:48.073Z,21.2
2023-04-29T18:21:31.703Z,21.2
2023-04-29T18:23:15.602Z,21.3
2023-04-29T18:24:59.114Z,21.2
2023-04-29T18:26:42.813Z,21.2
2023-04-29T18:28:26.507Z,21.2
2023-04-29T18:30:10.290Z,21
2023-04-29T18:31:53.912Z,21.1
2023-04-29T18:33:37.649Z,21.1
2023-04-29T18:35:21.338Z,21.1
2023-04-29T18:37:05.124Z,21.1
2023-04-29T18:38:48.732Z,21.1
2023-04-29T18:40:32.553Z,21.1
2023-04-29T18:42:16.167Z,21.2
2023-04-29T18:43:59.830Z,21.2
2023-04-29T18:45:43.531Z,21.2
2023-04-29T18:47:27.347Z,21.2
2023-04-29T18:49:10.952Z,21.2
2023-04-29T18:50:54.631Z,21.2
2023-04-29T18:52:38.344Z,21.2
2023-04-29T18:54:22.051Z,21.2
2023-04-29T18:56:05.806Z,21.2
2023-04-29T18:57:49.449Z,21.2
2023-04-29T18:59:33.282Z,21.2
2023-04-29T19:01:16.868Z,21.2
2023-04-29T19:03:00.563Z,21.2
2023-04-29T19:04:44.243Z,21.2
2023-04-29T19:06:28.051Z,21.2
2023-04-29T19:08:11.723Z,21.2
2023-04-29T19:09:55.373Z,21.2
2023-04-29T19:13:22.846Z,21.2
2023-04-29T19:15:06.472Z,21.2
2023-04-29T19:16:50.176Z,21.2
2023-04-29T19:18:33.865Z,21.2
2023-04-29T19:20:17.576Z,21.2
2023-04-29T19:22:01.270Z,21.2
2023-04-29T19:23:44.979Z,21.2
2023-04-29T19:25:28.794Z,21.2
2023-04-29T19:27:12.415Z,21.2
2023-04-29T19:28:56.116Z,21.2
2023-04-29T19:30:39.915Z,21.2
2023-04-29T19:32:23.503Z,21.2
2023-04-29T19:34:07.202Z,21.2
2023-04-29T19:35:50.918Z,21.2
2023-04-29T19:37:34.597Z,21.2
2023-04-29T19:39:18.394Z,21.2
2023-04-29T19:41:02.016Z,21.2
2023-04-29T19:42:45.761Z,21.2
2023-04-29T19:44:29.440Z,21.2
2023-04-29T19:46:13.125Z,21.2
2023-04-29T19:47:56.913Z,21.2
2023-04-29T19:49:40.629Z,21.2
2023-04-29T19:51:24.292Z,21.2
2023-04-29T19:53:07.997Z,21.2
2023-04-29T19:54:51.633Z,21.2
2023-04-29T19:56:35.336Z,21.2
2023-04-29T19:58:19.195Z,21.2
2023-04-29T20:00:02.834Z,21.2
2023-04-29T20:01:46.446Z,21.2
2023-04-29T20:03:30.167Z,21.2
2023-04-29T20:05:13.841Z,21.1
2023-04-29T20:06:57.554Z,21.2
2023-04-29T20:08:41.308Z,21.2
2023-04-29T20:10:24.999Z,21.1
2023-04-29T20:12:08.710Z,21.1
2023-04-29T20:13:52.352Z,21.1
2023-04-29T20:15:36.091Z,21.1
2023-04-29T20:17:19.792Z,21.1
2023-04-29T20:19:03.461Z,21.1
2023-04-29T20:20:47.317Z,21.1
2023-04-29T20:22:30.983Z,21.1
2023-04-29T20:24:14.692Z,21.1
2023-04-29T20:25:58.372Z,21.1
2023-04-29T20:27:42.143Z,21.1
2023-04-29T20:29:25.841Z,21.2
2023-04-29T20:31:09.480Z,21.1
2023-04-29T20:32:53.299Z,21.1
2023-04-29T20:34:36.783Z,21.1
2023-04-29T20:36:20.607Z,21.1
2023-04-29T20:38:04.385Z,21.1
2023-04-29T20:39:48.071Z,21.1
2023-04-29T20:41:31.751Z,21.1
2023-04-29T20:43:15.379Z,21.1
2023-04-29T20:44:58.987Z,21.1
2023-04-29T20:46:42.726Z,21.1
2023-04-29T20:48:26.558Z,21.1
2023-04-29T20:50:10.207Z,21.1
2023-04-29T20:51:53.916Z,21.1
2023-04-29T20:53:37.597Z,21.1
2023-04-29T20:55:21.407Z,21.1
2023-04-29T20:57:05.059Z,21.1
2023-04-29T20:58:48.735Z,21.1
2023-04-29T21:00:32.456Z,21.1
2023-04-29T21:02:16.115Z,21.1
2023-04-29T21:03:59.864Z,21.1
2023-04-29T21:05:43.564Z,21.1
2023-04-29T21:07:27.125Z,21.1
2023-04-29T21:09:10.952Z,21.1
2023-04-29T21:10:54.534Z,21.1
2023-04-29T21:12:38.251Z,21.1
2023-04-29T21:14:22.021Z,21.1
2023-04-29T21:16:05.696Z,21.1
2023-04-29T21:17:49.479Z,21.1
2023-04-29T21:19:33.131Z,21.1
2023-04-29T21:21:16.774Z,21.1
2023-04-29T21:23:00.531Z,21.1
2023-04-29T21:24:44.262Z,21.1
2023-04-29T21:26:27.841Z,21.1
2023-04-29T21:28:11.700Z,21.1
2023-04-29T21:29:55.356Z,21.1
2023-04-29T21:31:39.038Z,21.1
2023-04-29T21:33:22.675Z,21.1
2023-04-29T21:35:06.420Z,21.1
2023-04-29T21:36:50.204Z,21.1
2023-04-29T21:38:33.775Z,21.1
2023-04-29T21:40:17.462Z,21.1
2023-04-29T21:42:01.235Z,21.1
2023-04-29T21:43:45.027Z,21.1
2023-04-29T21:45:28.580Z,21.1
2023-04-29T21:47:12.382Z,21.1
2023-04-29T21:48:56.015Z,21.1
2023-04-29T21:50:39.764Z,21.1
2023-04-29T21:52:23.437Z,21.1
2023-04-29T21:54:07.090Z,21.1
2023-04-29T21:55:50.847Z,21.1
2023-04-29T21:57:34.499Z,21.1
2023-04-29T21:59:18.188Z,21.1
2023-04-29T22:01:01.957Z,21.1
2023-04-29T22:02:45.717Z,21.1
2023-04-29T22:04:29.447Z,21.1
2023-04-29T22:06:13.065Z,21.1
2023-04-29T22:07:56.709Z,21.1
2023-04-29T22:09:40.521Z,21.1
2023-04-29T22:11:24.119Z,21.1
2023-04-29T22:13:07.824Z,21.1
2023-04-29T22:14:51.534Z,21.1
2023-04-29T22:16:35.254Z,21.1
2023-04-29T22:18:18.925Z,21.1
2023-04-29T22:20:02.637Z,21.1
2023-04-29T22:21:46.470Z,21.1
2023-04-29T22:23:30.084Z,21.1
2023-04-29T22:25:13.802Z,21.1
2023-04-29T22:26:57.516Z,21.1
2023-04-29T22:28:41.141Z,21.1
2023-04-29T22:30:24.877Z,21.1
2023-04-29T22:32:08.545Z,21.1
2023-04-29T22:33:52.361Z,21.1
2023-04-29T22:35:35.956Z,21.1
2023-04-29T22:37:19.680Z,21.1
2023-04-29T22:39:03.457Z,21.1
2023-04-29T22:40:47.073Z,21.1
2023-04-29T22:42:30.786Z,21.1
2023-04-29T22:44:14.555Z,21.1
2023-04-29T22:45:58.202Z,21.1
2023-04-29T22:47:41.955Z,21.1
2023-04-29T22:49:25.574Z,21.1
2023-04-29T22:51:09.357Z,21.1
2023-04-29T22:52:52.997Z,21.1
2023-04-29T22:54:36.681Z,21.1
2023-04-29T22:56:20.375Z,21.1
2023-04-29T22:58:04.086Z,21.1
2023-04-29T22:59:47.930Z,21.1
2023-04-29T23:01:31.540Z,21.1
2023-04-29T23:03:15.186Z,21.1
2023-04-29T23:04:58.916Z,21.1
2023-04-29T23:06:42.649Z,21.1
2023-04-29T23:08:26.329Z,21.1
2023-04-29T23:10:10.075Z,21.1
2023-04-29T23:11:53.726Z,21.1
2023-04-29T23:13:37.481Z,21.1
2023-04-29T23:15:21.105Z,21.1